createdAt,value
2023-01-31T00:00:30.135Z,1.66
2023-01-31T00:03:15.395Z,1.66
2023-01-31T00:06:10.105Z,1.58
2023-01-31T00:08:56.134Z,1.65
2023-01-31T00:11:41.168Z,1.62
2023-01-31T00:14:26.213Z,1.61
2023-01-31T00:17:11.540Z,1.62
2023-01-31T00:19:56.822Z,1.57
2023-01-31T00:22:41.847Z,1.46
2023-01-31T00:25:27.154Z,1.57
2023-01-31T00:28:12.340Z,1.62
2023-01-31T00:30:58.646Z,1.58
2023-01-31T00:33:45.292Z,1.57
2023-01-31T00:36:32.902Z,1.57
2023-01-31T00:39:17.870Z,1.62
2023-01-31T00:42:03.266Z,1.44
2023-01-31T00:44:48.114Z,1.68
2023-01-31T00:47:33.256Z,1.75
2023-01-31T00:50:18.193Z,1.71
2023-01-31T00:53:03.861Z,1.82
2023-01-31T00:55:54.093Z,1.84
2023-01-31T00:58:42.426Z,1.80
2023-01-31T01:01:29.233Z,1.88
2023-01-31T01:04:14.924Z,1.85
2023-01-31T01:06:59.935Z,1.99
2023-01-31T01:09:45.240Z,2.15
2023-01-31T01:12:30.173Z,2.25
2023-01-31T01:15:15.463Z,2.22
2023-01-31T01:18:00.822Z,2.09
2023-01-31T01:20:45.860Z,2.13
2023-01-31T01:23:30.863Z,2.08
2023-01-31T01:26:22.313Z,2.06
2023-01-31T01:29:07.997Z,2.03
2023-01-31T01:31:53.134Z,2.00
2023-01-31T01:34:38.401Z,1.99
2023-01-31T01:37:24.210Z,2.01
2023-01-31T01:40:10.225Z,1.81
2023-01-31T01:42:55.345Z,1.95
2023-01-31T01:45:40.484Z,1.86
2023-01-31T01:48:27.721Z,2.00
2023-01-31T01:51:15.959Z,1.98
2023-01-31T01:54:05.950Z,2.01
2023-01-31T01:56:54.119Z,1.97
2023-01-31T01:59:45.825Z,1.97
2023-01-31T02:02:31.040Z,1.97
2023-01-31T02:05:24.430Z,2.01
2023-01-31T02:08:10.398Z,2.04
2023-01-31T02:11:17.648Z,2.06
2023-01-31T02:14:09.564Z,2.07
2023-01-31T02:16:55.535Z,2.11
2023-01-31T02:20:01.262Z,2.23
2023-01-31T02:23:20.530Z,2.35
2023-01-31T02:26:28.026Z,2.36
2023-01-31T02:29:28.060Z,2.25
2023-01-31T02:32:32.087Z,2.26
2023-01-31T02:35:38.608Z,2.15
2023-01-31T02:38:29.897Z,2.11
2023-01-31T02:41:40.472Z,2.18
2023-01-31T02:44:50.128Z,2.20
2023-01-31T02:47:47.366Z,2.19
2023-01-31T02:50:45.185Z,2.21
2023-01-31T02:53:37.319Z,2.19
2023-01-31T02:56:27.349Z,2.13
2023-01-31T02:59:18.619Z,2.13
2023-01-31T03:02:04.776Z,2.09
2023-01-31T03:04:49.970Z,2.06
2023-01-31T03:07:38.381Z,2.07
2023-01-31T03:11:03.093Z,2.02
2023-01-31T03:14:15.592Z,2.03
2023-01-31T03:17:33.284Z,1.97
2023-01-31T03:20:36.466Z,1.97
2023-01-31T03:23:26.776Z,1.85
2023-01-31T03:26:12.999Z,1.94
2023-01-31T03:29:01.574Z,2.01
2023-01-31T03:32:04.452Z,2.03
2023-01-31T03:34:49.914Z,2.12
2023-01-31T03:37:50.599Z,2.08
2023-01-31T03:40:49.667Z,1.92
2023-01-31T03:44:04.318Z,1.96
2023-01-31T03:47:13.146Z,1.99
2023-01-31T03:50:03.332Z,2.02
2023-01-31T03:53:09.341Z,2.23
2023-01-31T03:56:01.084Z,2.20
2023-01-31T03:58:51.325Z,2.21
2023-01-31T04:01:41.855Z,2.10
2023-01-31T04:04:40.852Z,2.22
2023-01-31T04:07:26.636Z,2.25
2023-01-31T04:10:16.756Z,2.30
2023-01-31T04:13:02.135Z,2.39
2023-01-31T04:15:46.890Z,2.38
2023-01-31T04:18:32.127Z,2.71
2023-01-31T04:21:17.343Z,2.92
2023-01-31T04:24:02.501Z,3.02
2023-01-31T04:26:48.219Z,3.09
2023-01-31T04:29:33.662Z,3.16
2023-01-31T04:32:18.569Z,3.29
2023-01-31T04:35:04.181Z,3.39
2023-01-31T04:37:48.973Z,3.39
2023-01-31T04:40:33.972Z,3.34
2023-01-31T04:43:19.267Z,3.53
2023-01-31T04:46:04.733Z,3.58
2023-01-31T04:48:49.965Z,3.63
2023-01-31T04:51:35.477Z,3.58
2023-01-31T04:54:20.664Z,3.68
2023-01-31T04:57:05.858Z,3.75
2023-01-31T04:59:52.106Z,3.79
2023-01-31T05:02:37.189Z,3.72
2023-01-31T05:05:22.610Z,3.82
2023-01-31T05:08:07.782Z,3.82
2023-01-31T05:11:03.021Z,3.89
2023-01-31T05:13:49.386Z,3.89
2023-01-31T05:16:34.507Z,4.01
2023-01-31T05:19:19.645Z,4.05
2023-01-31T05:22:05.183Z,4.01
2023-01-31T05:24:50.835Z,4.11
2023-01-31T05:27:36.073Z,4.17
2023-01-31T05:30:24.148Z,4.18
2023-01-31T05:33:09.299Z,4.25
2023-01-31T05:35:54.635Z,4.28
2023-01-31T05:38:39.902Z,4.26
2023-01-31T05:41:24.873Z,4.33
2023-01-31T05:44:10.909Z,4.34
2023-01-31T05:46:55.830Z,4.38
2023-01-31T05:49:41.055Z,4.42
2023-01-31T05:52:26.660Z,4.31
2023-01-31T05:55:11.696Z,4.37
2023-01-31T05:57:57.448Z,4.48
2023-01-31T06:00:42.398Z,4.46
2023-01-31T06:03:27.530Z,4.43
2023-01-31T06:06:13.842Z,4.33
2023-01-31T06:08:59.233Z,4.36
2023-01-31T06:11:44.689Z,4.38
2023-01-31T06:14:29.921Z,4.36
2023-01-31T06:17:15.324Z,4.39
2023-01-31T06:20:00.338Z,4.33
2023-01-31T06:22:45.563Z,4.47
2023-01-31T06:25:31.964Z,4.53
2023-01-31T06:28:18.089Z,4.53
2023-01-31T06:31:11.307Z,4.52
2023-01-31T06:33:56.464Z,4.51
2023-01-31T06:36:41.806Z,4.53
2023-01-31T06:39:27.011Z,4.55
2023-01-31T06:42:11.959Z,4.55
2023-01-31T06:44:57.387Z,4.54
2023-01-31T06:47:45.260Z,4.51
2023-01-31T06:50:30.355Z,4.53
2023-01-31T06:53:15.723Z,4.48
2023-01-31T06:56:00.805Z,4.46
2023-01-31T06:58:46.102Z,4.41
2023-01-31T07:01:31.563Z,4.39
2023-01-31T07:04:16.386Z,4.37
2023-01-31T07:07:01.788Z,4.35
2023-01-31T07:09:47.017Z,4.31
2023-01-31T07:12:32.505Z,4.33
2023-01-31T07:15:18.312Z,4.23
2023-01-31T07:18:03.431Z,4.29
2023-01-31T07:20:50.072Z,4.27
2023-01-31T07:23:35.225Z,4.26
2023-01-31T07:26:20.557Z,4.25
2023-01-31T07:29:05.691Z,4.24
2023-01-31T07:31:51.448Z,4.23
2023-01-31T07:34:36.625Z,4.30
2023-01-31T07:37:21.829Z,4.31
2023-01-31T07:40:07.657Z,4.34
2023-01-31T07:42:58.026Z,4.24
2023-01-31T07:45:43.020Z,4.35
2023-01-31T07:48:28.207Z,4.34
2023-01-31T07:51:13.560Z,4.31
2023-01-31T07:53:58.756Z,4.32
2023-01-31T07:56:44.118Z,4.35
2023-01-31T07:59:29.773Z,4.41
2023-01-31T08:02:35.832Z,4.49
2023-01-31T08:05:21.709Z,4.56
2023-01-31T08:08:12.943Z,4.60
2023-01-31T08:10:58.036Z,4.67
2023-01-31T08:13:43.307Z,4.60
2023-01-31T08:16:29.300Z,4.70
2023-01-31T08:19:14.369Z,4.71
2023-01-31T08:21:59.216Z,4.70
2023-01-31T08:24:44.463Z,4.86
2023-01-31T08:27:30.339Z,4.93
2023-01-31T08:30:15.469Z,4.99
2023-01-31T08:33:02.309Z,5.05
2023-01-31T08:35:47.566Z,5.04
2023-01-31T08:38:32.719Z,5.04
2023-01-31T08:41:19.622Z,5.07
2023-01-31T08:44:06.163Z,5.12
2023-01-31T08:46:51.288Z,5.19
2023-01-31T08:49:37.047Z,5.25
2023-01-31T08:52:21.954Z,5.29
2023-01-31T08:55:09.266Z,5.37
2023-01-31T08:57:59.884Z,5.45
2023-01-31T09:00:45.569Z,5.52
2023-01-31T09:03:31.065Z,5.64
2023-01-31T09:06:19.340Z,5.65
2023-01-31T09:09:04.608Z,5.82
2023-01-31T09:11:49.552Z,5.89
2023-01-31T09:14:34.563Z,5.90
2023-01-31T09:17:19.508Z,6.03
2023-01-31T09:20:06.687Z,6.08
2023-01-31T09:22:51.643Z,6.13
2023-01-31T09:25:45.621Z,6.19
2023-01-31T09:28:33.192Z,6.24
2023-01-31T09:31:20.770Z,6.27
2023-01-31T09:34:06.295Z,6.25
2023-01-31T09:36:51.463Z,6.38
2023-01-31T09:39:36.776Z,6.46
2023-01-31T09:42:27.552Z,6.53
2023-01-31T09:45:29.739Z,6.50
2023-01-31T09:48:22.633Z,6.59
2023-01-31T09:51:13.009Z,6.59
2023-01-31T09:53:58.061Z,6.65
2023-01-31T09:56:54.589Z,6.78
2023-01-31T09:59:46.492Z,6.79
2023-01-31T10:02:42.549Z,6.86
2023-01-31T10:05:49.823Z,6.93
2023-01-31T10:08:53.127Z,7.01
2023-01-31T10:11:47.389Z,7.08
2023-01-31T10:14:38.657Z,6.98
2023-01-31T10:17:33.783Z,7.27
2023-01-31T10:20:40.915Z,7.33
2023-01-31T10:23:33.949Z,7.34
2023-01-31T10:26:36.922Z,7.29
2023-01-31T10:29:34.261Z,7.29
2023-01-31T10:32:31.844Z,7.33
2023-01-31T10:35:31.697Z,7.34
2023-01-31T10:38:30.205Z,7.34
2023-01-31T10:41:25.691Z,7.37
2023-01-31T10:44:22.045Z,7.39
2023-01-31T10:47:18.587Z,7.41
2023-01-31T10:50:42.168Z,7.44
2023-01-31T10:53:52.954Z,7.47
2023-01-31T10:56:42.896Z,7.56
2023-01-31T10:59:28.047Z,7.54
2023-01-31T11:02:23.092Z,7.49
2023-01-31T11:05:18.731Z,7.58
2023-01-31T11:08:20.890Z,7.67
2023-01-31T11:11:11.871Z,7.76
2023-01-31T11:14:01.410Z,7.83
2023-01-31T11:16:48.576Z,7.99
2023-01-31T11:19:39.109Z,8.10
2023-01-31T11:22:31.409Z,8.14
2023-01-31T11:25:25.694Z,8.17
2023-01-31T11:28:22.331Z,8.23
2023-01-31T11:31:19.415Z,8.22
2023-01-31T11:34:17.719Z,8.24
2023-01-31T11:37:14.661Z,8.27
2023-01-31T11:40:03.648Z,8.34
2023-01-31T11:42:55.762Z,8.46
2023-01-31T11:45:45.626Z,9.43
2023-01-31T11:48:41.858Z,9.21
2023-01-31T11:51:31.713Z,8.98
2023-01-31T11:54:23.680Z,9.00
2023-01-31T11:57:24.842Z,8.94
2023-01-31T12:00:25.375Z,9.08
2023-01-31T12:03:15.985Z,9.11
2023-01-31T12:06:06.051Z,9.33
2023-01-31T12:08:54.208Z,9.38
2023-01-31T12:11:51.995Z,9.43
2023-01-31T12:14:42.216Z,9.48
2023-01-31T12:17:30.835Z,9.61
2023-01-31T12:20:28.649Z,9.54
2023-01-31T12:23:20.536Z,9.78
2023-01-31T12:26:17.113Z,9.86
2023-01-31T12:29:42.363Z,9.92
2023-01-31T12:32:46.224Z,10.02
2023-01-31T12:36:03.610Z,9.97
2023-01-31T12:38:48.590Z,9.96
2023-01-31T12:41:36.465Z,9.89
2023-01-31T12:44:37.267Z,9.91
2023-01-31T12:47:46.304Z,9.82
2023-01-31T12:50:55.056Z,9.84
2023-01-31T12:53:49.156Z,9.91
2023-01-31T12:56:49.371Z,9.88
2023-01-31T12:59:49.440Z,9.95
2023-01-31T13:02:43.627Z,10.01
2023-01-31T13:05:37.326Z,10.11
2023-01-31T13:08:27.209Z,10.43
2023-01-31T13:11:20.480Z,10.60
2023-01-31T13:14:11.893Z,10.50
2023-01-31T13:17:01.331Z,10.38
2023-01-31T13:19:50.628Z,10.60
2023-01-31T13:22:46.651Z,11.00
2023-01-31T13:25:39.758Z,11.18
2023-01-31T13:28:37.867Z,11.16
2023-01-31T13:31:33.962Z,11.43
2023-01-31T13:34:34.619Z,11.56
2023-01-31T13:37:23.278Z,11.52
2023-01-31T13:40:19.631Z,11.31
2023-01-31T13:43:13.729Z,11.31
2023-01-31T13:46:05.417Z,11.17
2023-01-31T13:48:57.714Z,11.04
2023-01-31T13:51:58.666Z,10.89
2023-01-31T13:54:49.603Z,10.89
2023-01-31T13:57:46.493Z,10.89
2023-01-31T14:00:44.244Z,10.85
2023-01-31T14:03:29.473Z,10.78
2023-01-31T14:06:14.564Z,10.72
2023-01-31T14:08:59.610Z,11.10
2023-01-31T14:11:44.938Z,11.40
2023-01-31T14:14:37.283Z,11.50
2023-01-31T14:17:22.146Z,11.45
2023-01-31T14:20:25.864Z,11.60
2023-01-31T14:23:31.625Z,11.67
2023-01-31T14:26:32.726Z,11.68
2023-01-31T14:29:27.291Z,11.64
2023-01-31T14:32:24.229Z,11.54
2023-01-31T14:35:12.104Z,11.61
2023-01-31T14:38:27.663Z,11.60
2023-01-31T14:41:25.054Z,11.66
2023-01-31T14:44:09.853Z,11.68
2023-01-31T14:47:25.918Z,11.62
2023-01-31T14:50:29.075Z,11.77
2023-01-31T14:53:49.774Z,11.68
2023-01-31T14:56:56.486Z,11.49
2023-01-31T14:59:53.881Z,11.31
2023-01-31T15:03:01.611Z,11.63
2023-01-31T15:06:08.462Z,11.60
2023-01-31T15:09:15.532Z,11.52
2023-01-31T15:12:01.257Z,11.51
2023-01-31T15:14:49.146Z,11.45
2023-01-31T15:17:39.273Z,11.42
2023-01-31T15:20:36.866Z,11.35
2023-01-31T15:23:31.643Z,11.26
2023-01-31T15:26:18.903Z,11.13
2023-01-31T15:29:04.976Z,11.06
2023-01-31T15:31:54.796Z,10.96
2023-01-31T15:34:47.454Z,10.85
2023-01-31T15:37:35.184Z,10.85
2023-01-31T15:40:24.022Z,10.80
2023-01-31T15:43:23.707Z,10.66
2023-01-31T15:46:21.711Z,10.60
2023-01-31T15:49:38.583Z,11.84
2023-01-31T15:52:25.346Z,13.10
2023-01-31T15:55:14.663Z,13.04
2023-01-31T15:58:03.009Z,11.78
2023-01-31T16:00:56.623Z,11.19
2023-01-31T16:03:43.436Z,10.95
2023-01-31T16:06:36.565Z,10.73
2023-01-31T16:09:29.627Z,10.48
2023-01-31T16:12:16.060Z,10.45
2023-01-31T16:15:06.110Z,10.50
2023-01-31T16:17:53.341Z,10.38
2023-01-31T16:21:15.886Z,10.25
2023-01-31T16:24:03.926Z,10.19
2023-01-31T16:27:05.525Z,10.16
2023-01-31T16:29:58.985Z,10.15
2023-01-31T16:32:46.485Z,9.96
2023-01-31T16:35:31.525Z,10.00
2023-01-31T16:38:21.516Z,9.98
2023-01-31T16:41:12.622Z,9.88
2023-01-31T16:43:58.085Z,9.86
2023-01-31T16:46:45.941Z,9.79
2023-01-31T16:49:35.543Z,9.76
2023-01-31T16:52:29.650Z,9.69
2023-01-31T16:55:17.686Z,9.64
2023-01-31T16:58:02.942Z,9.60
2023-01-31T17:00:48.688Z,9.48
2023-01-31T17:03:36.052Z,9.39
2023-01-31T17:06:22.351Z,9.33
2023-01-31T17:09:09.727Z,9.31
2023-01-31T17:11:56.259Z,9.32
2023-01-31T17:14:41.436Z,10.32
2023-01-31T17:17:34.947Z,9.60
2023-01-31T17:20:21.706Z,9.87
2023-01-31T17:23:07.047Z,9.48
2023-01-31T17:25:52.234Z,9.21
2023-01-31T17:28:37.356Z,9.09
2023-01-31T17:31:23.739Z,8.92
2023-01-31T17:34:13.919Z,8.80
2023-01-31T17:36:59.191Z,8.77
2023-01-31T17:39:44.304Z,8.66
2023-01-31T17:42:29.610Z,8.49
2023-01-31T17:45:18.889Z,8.41
2023-01-31T17:48:06.132Z,8.42
2023-01-31T17:50:53.534Z,8.34
2023-01-31T17:53:47.959Z,8.26
2023-01-31T17:56:34.610Z,8.22
2023-01-31T17:59:26.938Z,8.20
2023-01-31T18:02:12.588Z,8.11
2023-01-31T18:04:57.979Z,8.07
2023-01-31T18:07:43.351Z,8.05
2023-01-31T18:10:28.822Z,8.04
2023-01-31T18:13:13.631Z,8.08
2023-01-31T18:16:07.297Z,7.96
2023-01-31T18:18:53.344Z,8.04
2023-01-31T18:21:43.901Z,7.90
2023-01-31T18:24:32.170Z,8.04
2023-01-31T18:27:17.362Z,8.03
2023-01-31T18:30:02.671Z,8.03
2023-01-31T18:32:47.762Z,8.00
2023-01-31T18:35:33.044Z,7.99
2023-01-31T18:38:18.212Z,7.99
2023-01-31T18:41:06.595Z,7.95
2023-01-31T18:43:51.673Z,7.93
2023-01-31T18:46:36.731Z,7.92
2023-01-31T18:49:22.048Z,7.91
2023-01-31T18:52:08.413Z,7.87
2023-01-31T18:54:54.235Z,7.85
2023-01-31T18:57:39.162Z,7.77
2023-01-31T19:00:24.502Z,7.81
2023-01-31T19:03:09.767Z,7.79
2023-01-31T19:05:54.954Z,7.72
2023-01-31T19:08:40.811Z,7.71
2023-01-31T19:11:28.370Z,7.72
2023-01-31T19:14:14.198Z,7.63
2023-01-31T19:16:59.538Z,7.59
2023-01-31T19:19:44.611Z,7.49
2023-01-31T19:22:29.547Z,7.51
2023-01-31T19:25:14.871Z,7.53
2023-01-31T19:28:01.041Z,7.44
2023-01-31T19:30:46.392Z,7.37
2023-01-31T19:33:31.429Z,7.45
2023-01-31T19:36:21.683Z,7.40
2023-01-31T19:39:10.562Z,7.38
2023-01-31T19:41:55.642Z,7.41
2023-01-31T19:44:40.503Z,7.43
2023-01-31T19:47:25.841Z,7.43
2023-01-31T19:50:11.434Z,7.39
2023-01-31T19:52:56.707Z,7.44
2023-01-31T19:55:41.924Z,7.46
2023-01-31T19:58:31.263Z,7.50
2023-01-31T20:01:17.107Z,7.51
2023-01-31T20:04:02.393Z,7.51
2023-01-31T20:06:48.037Z,7.51
2023-01-31T20:09:33.313Z,7.43
2023-01-31T20:12:18.493Z,7.53
2023-01-31T20:15:05.892Z,7.46
2023-01-31T20:17:51.269Z,7.56
2023-01-31T20:20:36.267Z,7.55
2023-01-31T20:23:21.610Z,7.46
2023-01-31T20:26:07.212Z,7.56
2023-01-31T20:28:52.455Z,7.55
2023-01-31T20:31:38.311Z,7.56
2023-01-31T20:34:23.462Z,7.50
2023-01-31T20:37:09.086Z,7.54
2023-01-31T20:39:54.339Z,7.53
2023-01-31T20:42:39.525Z,7.53
2023-01-31T20:45:28.388Z,7.46
2023-01-31T20:48:14.063Z,7.36
2023-01-31T20:50:59.874Z,7.33
2023-01-31T20:53:45.354Z,7.26
2023-01-31T20:56:30.514Z,7.11
2023-01-31T20:59:15.561Z,7.12
2023-01-31T21:02:00.689Z,7.02
2023-01-31T21:04:46.020Z,6.96
2023-01-31T21:07:31.102Z,6.86
2023-01-31T21:10:16.249Z,6.96
2023-01-31T21:13:01.551Z,6.98
2023-01-31T21:15:55.039Z,6.96
2023-01-31T21:18:42.845Z,6.90
2023-01-31T21:21:28.045Z,6.88
2023-01-31T21:24:13.488Z,6.85
2023-01-31T21:26:58.898Z,6.84
2023-01-31T21:29:44.433Z,6.75
2023-01-31T21:32:29.331Z,6.62
2023-01-31T21:35:14.708Z,6.63
2023-01-31T21:37:59.802Z,6.57
2023-01-31T21:40:45.007Z,6.38
2023-01-31T21:43:30.638Z,6.46
2023-01-31T21:46:15.946Z,6.38
2023-01-31T21:49:01.459Z,6.36
2023-01-31T21:51:46.679Z,6.25
2023-01-31T21:54:32.438Z,6.23
2023-01-31T21:57:17.469Z,6.21
2023-01-31T22:00:02.490Z,6.19
2023-01-31T22:02:51.743Z,6.10
2023-01-31T22:05:36.775Z,6.05
2023-01-31T22:08:21.878Z,6.00
2023-01-31T22:11:10.281Z,5.92
2023-01-31T22:13:56.283Z,5.95
2023-01-31T22:16:42.316Z,5.89
2023-01-31T22:19:27.321Z,5.83
2023-01-31T22:22:12.346Z,5.70
2023-01-31T22:24:57.306Z,5.73
2023-01-31T22:27:42.434Z,5.72
2023-01-31T22:30:27.701Z,5.63
2023-01-31T22:33:13.327Z,5.56
2023-01-31T22:35:58.402Z,5.42
2023-01-31T22:38:45.283Z,5.44
2023-01-31T22:41:30.501Z,5.55
2023-01-31T22:44:15.591Z,5.50
2023-01-31T22:47:00.970Z,5.44
2023-01-31T22:49:46.259Z,5.28
2023-01-31T22:52:31.369Z,5.24
2023-01-31T22:55:16.389Z,5.30
2023-01-31T22:58:01.678Z,5.27
2023-01-31T23:00:47.724Z,5.24
2023-01-31T23:03:32.808Z,5.28
2023-01-31T23:06:18.253Z,5.29
2023-01-31T23:09:03.613Z,5.07
2023-01-31T23:11:48.865Z,5.25
2023-01-31T23:14:34.096Z,5.17
2023-01-31T23:17:37.580Z,5.10
2023-01-31T23:20:23.391Z,5.03
2023-01-31T23:23:08.523Z,4.96
2023-01-31T23:25:53.475Z,5.01
2023-01-31T23:28:38.727Z,4.90
2023-01-31T23:31:23.781Z,4.83
2023-01-31T23:34:08.787Z,4.81
2023-01-31T23:36:54.335Z,4.83
2023-01-31T23:39:39.652Z,4.85
2023-01-31T23:42:25.097Z,4.80
2023-01-31T23:45:10.706Z,4.79
2023-01-31T23:47:56.139Z,4.74
2023-01-31T23:50:41.380Z,4.74
2023-01-31T23:53:28.077Z,4.74
2023-01-31T23:56:13.194Z,4.55
2023-01-31T23:58:58.376Z,4.67
